Time;durP1;ratioP1;P1;durP2;ratioP2;P2;SDS_P1;SDS_P2;PMS_P1;PMS_P2;Temp;Humidity;BMP_temperature;BMP_pressure;BME280_temperature;BME280_humidity;BME280_pressure;Samples;Min_cycle;Max_cycle;Signal;HPM_P1;HPM_P2
2021/07/25 00:04:41;;;;;;;64.22;45.70;;;18.50;99.90;;;;;;12631672;28;20043;-41
2021/07/25 00:10:46;;;;;;;66.50;45.47;;;18.50;99.90;;;;;;12627228;28;20487;-40
2021/07/25 00:16:48;;;;;;;63.50;45.63;;;18.40;99.90;;;;;;12636332;28;20055;-40
2021/07/25 00:22:50;;;;;;;60.70;43.70;;;18.40;99.90;;;;;;12634095;28;20040;-40
2021/07/25 00:28:52;;;;;;;60.08;43.67;;;18.30;99.90;;;;;;12638205;28;20043;-40
2021/07/25 00:34:56;;;;;;;62.47;43.03;;;18.40;99.90;;;;;;12636138;28;20044;-40
2021/07/25 00:41:10;;;;;;;;;;;18.20;99.90;;;;;;12636676;28;20100;-41
2021/07/25 00:47:12;;;;;;;;;;;18.20;99.90;;;;;;12629794;28;20447;-40
2021/07/25 00:53:14;;;;;;;59.60;43.42;;;18.20;99.90;;;;;;12631119;28;19932;-41
2021/07/25 00:59:16;;;;;;;61.33;43.08;;;18.10;99.90;;;;;;12633028;28;20836;-42
2021/07/25 01:05:48;;;;;;;61.80;42.63;;;18.10;99.90;;;;;;12630196;28;20483;-40
2021/07/25 01:11:57;;;;;;;58.95;41.80;;;18.10;99.90;;;;;;12644313;27;20164;-43
2021/07/25 01:17:59;;;;;;;55.75;40.63;;;18.10;99.90;;;;;;12644901;28;20048;-41
2021/07/25 01:24:01;;;;;;;53.60;39.90;;;18.10;99.90;;;;;;12642056;28;20086;-41
2021/07/25 01:30:06;;;;;;;53.70;38.72;;;18.10;99.90;;;;;;12637877;28;20115;-40
2021/07/25 01:36:11;;;;;;;56.92;38.25;;;18.00;99.90;;;;;;12644751;28;20048;-40
2021/07/25 01:42:31;;;;;;;49.60;35.60;;;18.10;99.90;;;;;;12642447;27;20100;-40
2021/07/25 01:48:36;;;;;;;45.72;33.63;;;18.10;99.90;;;;;;12641900;28;20143;-40
2021/07/25 01:54:37;;;;;;;51.78;34.22;;;18.10;99.90;;;;;;12644111;28;20039;-39
2021/07/25 02:00:40;;;;;;;41.65;31.10;;;18.20;99.90;;;;;;12630279;28;20147;-42
2021/07/25 02:06:41;;;;;;;43.75;31.88;;;18.10;99.90;;;;;;12640767;28;20442;-40
2021/07/25 02:12:43;;;;;;;43.97;31.63;;;18.10;99.90;;;;;;12635469;28;20052;-40
2021/07/25 02:18:45;;;;;;;46.28;31.17;;;18.10;99.90;;;;;;12639941;28;20044;-43
2021/07/25 02:24:47;;;;;;;41.17;29.83;;;18.10;99.90;;;;;;12637819;28;20559;-39
2021/07/25 02:30:48;;;;;;;43.53;29.40;;;18.10;99.90;;;;;;12639512;28;20480;-40
2021/07/25 02:36:50;;;;;;;43.45;28.05;;;18.00;99.90;;;;;;12643836;28;20163;-39
2021/07/25 02:42:52;;;;;;;40.67;28.83;;;18.00;99.90;;;;;;12641748;28;20113;-40
2021/07/25 02:48:54;;;;;;;37.88;27.27;;;17.90;99.90;;;;;;12641200;28;20080;-40
2021/07/25 02:54:56;;;;;;;44.60;27.73;;;17.80;99.90;;;;;;12630049;28;20044;-39
2021/07/25 03:00:58;;;;;;;35.33;26.52;;;17.70;99.90;;;;;;12640541;28;20073;-41
2021/07/25 03:07:00;;;;;;;39.25;26.67;;;17.70;99.90;;;;;;12647963;28;20075;-43
2021/07/25 03:13:02;;;;;;;42.88;26.15;;;17.70;99.90;;;;;;12635977;28;20093;-40
2021/07/25 03:19:03;;;;;;;33.72;26.15;;;17.60;99.90;;;;;;12638647;28;20292;-40
2021/07/25 03:25:06;;;;;;;33.88;26.58;;;17.50;99.90;;;;;;12635904;28;20449;-41
2021/07/25 03:31:08;;;;;;;40.30;25.65;;;17.60;99.90;;;;;;12641831;28;20047;-40
2021/07/25 03:37:09;;;;;;;37.53;25.05;;;17.60;99.90;;;;;;12636734;27;20062;-40
2021/07/25 03:43:13;;;;;;;36.65;25.05;;;17.50;99.90;;;;;;12637241;28;20123;-41
2021/07/25 03:49:15;;;;;;;34.47;25.57;;;17.50;99.90;;;;;;12635862;28;20048;-41
2021/07/25 03:55:17;;;;;;;44.65;26.63;;;17.60;99.90;;;;;;12636954;28;20039;-41
2021/07/25 04:01:19;;;;;;;34.25;25.35;;;17.60;99.90;;;;;;12635949;28;20092;-41
2021/07/25 04:07:21;;;;;;;34.38;25.00;;;17.70;99.90;;;;;;12635083;28;20044;-41
2021/07/25 04:13:23;;;;;;;34.78;25.05;;;17.70;99.90;;;;;;12634274;28;20048;-40
2021/07/25 04:19:27;;;;;;;36.38;25.08;;;17.60;99.90;;;;;;12632079;28;20051;-40
2021/07/25 04:25:30;;;;;;;34.50;24.55;;;17.60;99.90;;;;;;12635393;28;20449;-40
2021/07/25 04:31:33;;;;;;;33.93;24.03;;;17.60;99.90;;;;;;12638539;28;20764;-40
2021/07/25 04:37:37;;;;;;;31.02;23.15;;;17.60;99.90;;;;;;12639103;28;20170;-43
2021/07/25 04:43:39;;;;;;;;;;;17.70;99.90;;;;;;12643221;28;20958;-40
2021/07/25 04:49:56;;;;;;;34.13;22.98;;;17.50;99.90;;;;;;12646511;28;19976;-40
2021/07/25 04:56:00;;;;;;;38.03;23.48;;;17.60;99.90;;;;;;12648388;28;20090;-40
2021/07/25 05:02:06;;;;;;;30.83;22.08;;;17.50;99.90;;;;;;12650596;28;20044;-40
2021/07/25 05:08:09;;;;;;;33.33;22.70;;;17.50;99.90;;;;;;12644505;28;20044;-41
2021/07/25 05:14:28;;;;;;;29.60;21.60;;;17.60;99.90;;;;;;12625834;28;20051;-40
2021/07/25 05:21:03;;;;;;;28.15;21.23;;;17.70;99.90;;;;;;12644368;28;20454;-41
2021/07/25 05:27:05;;;;;;;30.25;22.52;;;17.70;99.90;;;;;;12641792;28;20070;-40
2021/07/25 05:33:07;;;;;;;27.65;20.88;;;17.80;99.90;;;;;;12646128;28;20520;-41
2021/07/25 05:39:09;;;;;;;30.90;21.17;;;17.90;99.90;;;;;;12652406;28;20036;-40
2021/07/25 05:45:12;;;;;;;28.52;19.88;;;18.10;99.90;;;;;;12642186;28;20419;-40
2021/07/25 05:51:14;;;;;;;29.23;19.13;;;18.20;99.90;;;;;;12643308;28;20768;-40
2021/07/25 05:57:16;;;;;;;26.83;18.40;;;18.30;99.90;;;;;;12646041;28;20275;-40
2021/07/25 06:03:18;;;;;;;25.92;19.25;;;18.30;99.90;;;;;;12641020;28;20095;-40
2021/07/25 06:09:21;;;;;;;25.05;18.27;;;18.20;99.90;;;;;;12644161;28;20043;-40
2021/07/25 06:15:24;;;;;;;28.45;19.13;;;18.20;99.90;;;;;;12640840;28;20862;-42
2021/07/25 06:21:27;;;;;;;23.08;18.23;;;18.30;99.90;;;;;;12641655;28;20126;-43
2021/07/25 06:27:29;;;;;;;23.35;18.27;;;18.40;99.90;;;;;;12642097;28;20075;-41
2021/07/25 06:33:30;;;;;;;26.23;18.33;;;18.70;99.90;;;;;;12639730;28;20101;-40
2021/07/25 06:39:32;;;;;;;23.90;17.88;;;18.80;99.90;;;;;;12633065;28;20047;-40
2021/07/25 06:45:35;;;;;;;27.25;17.77;;;18.90;99.90;;;;;;12636722;28;20081;-40
2021/07/25 06:51:37;;;;;;;19.73;15.30;;;19.30;99.90;;;;;;12636465;28;20052;-40
2021/07/25 06:57:40;;;;;;;24.05;16.30;;;19.40;99.90;;;;;;12638033;28;20064;-40
2021/07/25 07:03:42;;;;;;;18.63;14.03;;;19.50;99.90;;;;;;12638080;28;20077;-40
2021/07/25 07:09:43;;;;;;;21.20;14.38;;;19.70;99.90;;;;;;12633734;28;20097;-39
2021/07/25 07:15:47;;;;;;;19.05;13.23;;;19.80;99.90;;;;;;12637048;28;20089;-43
2021/07/25 07:21:49;;;;;;;18.70;12.25;;;19.90;99.90;;;;;;12638552;28;20586;-43
2021/07/25 07:27:51;;;;;;;15.80;11.50;;;20.00;99.90;;;;;;12635108;28;20547;-40
2021/07/25 07:33:54;;;;;;;14.88;10.70;;;20.20;99.90;;;;;;12645018;28;20059;-40
2021/07/25 07:39:55;;;;;;;15.20;11.07;;;20.30;99.90;;;;;;12637637;28;20104;-40
2021/07/25 07:45:57;;;;;;;14.32;11.05;;;20.40;99.90;;;;;;12632352;28;20093;-40
2021/07/25 07:51:59;;;;;;;15.07;11.77;;;20.50;99.90;;;;;;12636547;28;20048;-40
2021/07/25 07:58:01;;;;;;;16.98;10.68;;;20.60;99.90;;;;;;12635882;28;20047;-41
2021/07/25 08:04:03;;;;;;;16.83;11.63;;;20.70;99.90;;;;;;12637671;28;20441;-41
2021/07/25 08:10:06;;;;;;;17.77;12.20;;;20.80;99.90;;;;;;12635188;28;20535;-42
2021/07/25 08:16:09;;;;;;;15.32;11.07;;;21.00;99.90;;;;;;12634987;28;20078;-40
2021/07/25 08:22:11;;;;;;;14.83;10.33;;;21.20;99.90;;;;;;12635972;28;20610;-40
2021/07/25 08:28:13;;;;;;;13.68;10.93;;;21.30;99.90;;;;;;12630335;28;20110;-41
2021/07/25 08:34:15;;;;;;;14.80;11.30;;;21.30;99.90;;;;;;12629361;28;20553;-42
2021/07/25 08:40:20;;;;;;;14.27;10.45;;;21.60;99.90;;;;;;12634089;28;20579;-40
2021/07/25 08:46:22;;;;;;;19.05;11.10;;;21.70;99.90;;;;;;12632163;28;20048;-40
2021/07/25 08:52:35;;;;;;;18.40;12.90;;;21.80;99.90;;;;;;12634264;28;20052;-41
2021/07/25 08:58:43;;;;;;;15.57;11.70;;;21.80;99.90;;;;;;12620233;28;20056;-44
2021/07/25 09:04:46;;;;;;;21.35;14.02;;;22.00;99.90;;;;;;12638944;28;20104;-40
2021/07/25 09:10:49;;;;;;;;;;;22.30;99.90;;;;;;12635140;28;20113;-42
2021/07/25 09:16:51;;;;;;;19.67;13.00;;;21.90;99.90;;;;;;12635274;28;19924;-40
2021/07/25 09:22:54;;;;;;;20.55;12.70;;;22.30;99.90;;;;;;12633037;28;20050;-41
2021/07/25 09:29:17;;;;;;;15.73;12.60;;;22.80;99.90;;;;;;12624420;28;20487;-40
2021/07/25 09:35:23;;;;;;;15.77;11.77;;;22.80;99.90;;;;;;12643870;28;20040;-41
2021/07/25 09:41:26;;;;;;;13.48;10.52;;;22.70;99.90;;;;;;12643892;28;20044;-40
2021/07/25 09:47:35;;;;;;;13.05;10.10;;;22.80;99.90;;;;;;12628249;28;20140;-40
2021/07/25 09:53:45;;;;;;;11.80;9.18;;;22.70;99.90;;;;;;12642557;28;20052;-40
2021/07/25 09:59:47;;;;;;;14.02;9.73;;;22.60;99.90;;;;;;12645636;28;20103;-40
2021/07/25 10:05:51;;;;;;;;;;;23.20;99.90;;;;;;12645115;28;20084;-40
2021/07/25 10:12:01;;;;;;;16.10;11.07;;;23.00;99.90;;;;;;12642650;28;19945;-40
2021/07/25 10:18:05;;;;;;;10.70;8.77;;;23.00;99.90;;;;;;12644557;28;20051;-40
2021/07/25 10:24:12;;;;;;;11.93;9.60;;;22.90;99.90;;;;;;12642004;28;20048;-40
2021/07/25 10:30:14;;;;;;;11.73;9.07;;;23.40;99.90;;;;;;12643390;28;20146;-40
2021/07/25 10:36:20;;;;;;;10.75;8.68;;;24.10;99.90;;;;;;12644077;28;20590;-40
2021/07/25 10:42:23;;;;;;;13.65;8.57;;;24.40;99.90;;;;;;12641642;28;20116;-43
2021/07/25 10:48:25;;;;;;;13.40;8.32;;;24.70;99.90;;;;;;12642889;28;20100;-42
2021/07/25 10:54:28;;;;;;;10.10;7.57;;;24.80;99.90;;;;;;12642334;28;20056;-44
2021/07/25 11:00:46;;;;;;;9.50;5.72;;;25.20;99.90;;;;;;12637547;28;20835;-40
2021/07/25 11:07:24;;;;;;;7.32;4.95;;;25.50;99.90;;;;;;12641320;28;20048;-41
2021/07/25 11:13:41;;;;;;;6.45;4.70;;;25.70;99.90;;;;;;12642509;28;20055;-40
2021/07/25 11:19:46;;;;;;;8.07;4.38;;;24.60;99.90;;;;;;12639005;28;21184;-41
2021/07/25 11:25:50;;;;;;;5.67;3.67;;;24.40;99.90;;;;;;12637987;28;20383;-41
2021/07/25 11:31:52;;;;;;;6.95;4.75;;;25.40;99.90;;;;;;12616616;28;20051;-40
2021/07/25 11:37:56;;;;;;;5.80;4.30;;;25.80;99.90;;;;;;12638443;28;20085;-41
2021/07/25 11:44:06;;;;;;;6.97;4.05;;;26.20;99.90;;;;;;12640303;28;20432;-42
2021/07/25 11:50:08;;;;;;;5.32;4.57;;;26.20;99.90;;;;;;12638034;28;20051;-42
2021/07/25 11:56:10;;;;;;;6.23;4.50;;;25.70;99.90;;;;;;12638410;28;20051;-41
2021/07/25 12:02:13;;;;;;;7.78;4.57;;;25.20;99.90;;;;;;12635632;28;20488;-41
2021/07/25 12:08:15;;;;;;;8.15;4.38;;;25.10;99.90;;;;;;12636956;28;20043;-45
2021/07/25 12:14:25;;;;;;;5.75;4.00;;;25.30;99.90;;;;;;12634643;28;20086;-43
2021/07/25 12:20:33;;;;;;;6.55;4.30;;;26.10;99.90;;;;;;12633392;28;20052;-41
2021/07/25 12:26:40;;;;;;;6.07;3.88;;;26.70;99.90;;;;;;12639615;28;20059;-40
2021/07/25 12:32:46;;;;;;;7.18;4.00;;;27.00;99.90;;;;;;12639441;28;20101;-41
2021/07/25 12:38:48;;;;;;;5.93;4.50;;;27.40;99.90;;;;;;12635788;28;20122;-41
2021/07/25 12:44:50;;;;;;;7.53;5.07;;;27.10;99.90;;;;;;12639017;28;20051;-41
2021/07/25 12:57:18;;;;;;;9.70;6.10;;;26.90;99.90;;;;;;12632981;28;20124;-42
2021/07/25 13:09:40;;;;;;;8.73;5.20;;;27.50;99.90;;;;;;12649685;28;20167;-41
2021/07/25 13:15:42;;;;;;;6.53;4.70;;;27.40;99.90;;;;;;12628695;28;20108;-40
2021/07/25 13:21:44;;;;;;;7.40;5.23;;;27.40;99.90;;;;;;12634388;28;20043;-41
2021/07/25 13:27:46;;;;;;;7.82;4.45;;;27.70;99.90;;;;;;12642880;28;20047;-41
2021/07/25 13:33:48;;;;;;;7.60;4.37;;;27.20;99.90;;;;;;12642010;28;20059;-41
2021/07/25 13:39:49;;;;;;;6.10;4.50;;;26.70;99.90;;;;;;12643244;28;20051;-41
2021/07/25 13:46:00;;;;;;;5.78;4.25;;;26.00;99.90;;;;;;12639403;28;20127;-40
2021/07/25 13:52:03;;;;;;;7.50;4.50;;;26.20;99.90;;;;;;12647374;28;20412;-40
2021/07/25 13:58:05;;;;;;;4.97;3.63;;;26.30;99.90;;;;;;12642899;28;20079;-41
2021/07/25 14:04:07;;;;;;;5.60;3.40;;;26.10;99.90;;;;;;12643489;27;20461;-40
2021/07/25 14:10:10;;;;;;;3.30;2.40;;;25.60;99.90;;;;;;12644442;28;20087;-41
2021/07/25 14:16:25;;;;;;;3.28;2.33;;;25.10;99.90;;;;;;12640032;28;20092;-41
2021/07/25 14:22:27;;;;;;;4.65;2.55;;;24.90;99.90;;;;;;12645093;28;20043;-40
2021/07/25 14:28:28;;;;;;;6.72;2.40;;;24.70;99.90;;;;;;12644471;28;20048;-40
2021/07/25 14:34:30;;;;;;;4.38;2.63;;;24.90;99.90;;;;;;12640467;28;20556;-41
2021/07/25 14:40:32;;;;;;;4.15;2.20;;;25.50;99.90;;;;;;12638966;27;20052;-40
2021/07/25 14:46:34;;;;;;;3.47;2.50;;;26.00;99.90;;;;;;12640248;28;20492;-41
2021/07/25 14:52:37;;;;;;;5.80;2.10;;;26.50;99.90;;;;;;12643336;28;20060;-42
2021/07/25 14:58:39;;;;;;;3.88;2.63;;;26.90;99.90;;;;;;12640358;28;20055;-42
2021/07/25 15:04:41;;;;;;;5.47;2.77;;;27.00;99.90;;;;;;12639012;28;20051;-41
2021/07/25 15:10:43;;;;;;;3.50;2.63;;;27.30;99.90;;;;;;12640374;28;20048;-40
2021/07/25 15:16:45;;;;;;;4.67;2.93;;;27.50;99.90;;;;;;12627295;28;20122;-42
2021/07/25 15:22:47;;;;;;;3.63;2.33;;;27.50;99.90;;;;;;12636960;28;20056;-41
2021/07/25 15:28:48;;;;;;;5.97;2.90;;;27.00;99.90;;;;;;12641247;28;20495;-40
2021/07/25 15:34:50;;;;;;;5.28;2.47;;;26.70;99.90;;;;;;12638471;28;20055;-41
2021/07/25 15:40:52;;;;;;;4.05;2.80;;;26.80;99.90;;;;;;12639376;28;20105;-42
2021/07/25 15:46:55;;;;;;;3.80;2.40;;;27.20;99.90;;;;;;12640247;28;20056;-40
2021/07/25 15:52:59;;;;;;;3.40;2.25;;;26.70;99.90;;;;;;12636719;28;20596;-41
2021/07/25 15:59:01;;;;;;;3.20;2.35;;;26.00;99.90;;;;;;12635472;27;20117;-41
2021/07/25 16:05:03;;;;;;;4.63;2.55;;;25.60;99.90;;;;;;12638314;28;20512;-42
2021/07/25 16:11:16;;;;;;;4.10;2.60;;;25.30;99.90;;;;;;12640364;28;20506;-40
2021/07/25 16:17:18;;;;;;;5.18;2.70;;;25.10;99.90;;;;;;12641262;28;20472;-40
2021/07/25 16:23:21;;;;;;;4.40;2.87;;;25.00;99.90;;;;;;12636290;28;20048;-40
2021/07/25 16:29:22;;;;;;;3.97;2.33;;;25.00;99.90;;;;;;12626693;28;20051;-40
2021/07/25 16:35:24;;;;;;;3.53;2.42;;;25.00;99.90;;;;;;12636084;28;20456;-41
2021/07/25 16:41:26;;;;;;;3.88;2.60;;;24.90;99.90;;;;;;12634574;28;20144;-40
2021/07/25 16:47:28;;;;;;;3.35;2.40;;;24.80;99.90;;;;;;12638764;28;20113;-40
2021/07/25 16:53:30;;;;;;;4.25;2.72;;;24.70;99.90;;;;;;12633383;28;20048;-42
2021/07/25 16:59:32;;;;;;;4.63;2.50;;;24.50;99.90;;;;;;12637820;28;20059;-40
2021/07/25 17:05:34;;;;;;;5.27;2.57;;;24.40;99.90;;;;;;12637326;28;20052;-41
2021/07/25 17:11:36;;;;;;;3.33;2.10;;;24.30;99.90;;;;;;12633650;28;20309;-40
2021/07/25 17:17:38;;;;;;;4.88;2.70;;;24.20;99.90;;;;;;12633597;28;20048;-41
2021/07/25 17:23:40;;;;;;;4.18;2.47;;;24.10;99.90;;;;;;12636574;28;20381;-40
2021/07/25 17:29:43;;;;;;;;;;;24.00;99.90;;;;;;12635805;28;20142;-41
2021/07/25 17:35:45;;;;;;;4.20;2.95;;;23.90;99.90;;;;;;12621853;28;19938;-40
2021/07/25 17:41:46;;;;;;;4.03;2.70;;;23.80;99.90;;;;;;12634454;28;20060;-40
2021/07/25 17:47:48;;;;;;;4.43;3.03;;;23.60;99.90;;;;;;12642190;28;20056;-41
2021/07/25 17:53:50;;;;;;;4.07;2.70;;;23.50;99.90;;;;;;12643752;28;20044;-40
2021/07/25 17:59:52;;;;;;;7.05;2.95;;;23.40;99.90;;;;;;12646266;28;20078;-40
2021/07/25 18:05:53;;;;;;;3.88;2.80;;;23.30;99.90;;;;;;12644064;28;20120;-40
2021/07/25 18:11:55;;;;;;;6.90;2.67;;;23.10;99.90;;;;;;12649389;28;20044;-41
2021/07/25 18:17:57;;;;;;;5.03;3.03;;;22.90;99.90;;;;;;12644269;28;20052;-41
2021/07/25 18:23:59;;;;;;;5.68;2.58;;;23.00;99.90;;;;;;12641653;28;20048;-40
2021/07/25 18:30:01;;;;;;;5.15;3.10;;;22.90;99.90;;;;;;12643332;28;20086;-40
2021/07/25 18:36:03;;;;;;;4.82;3.20;;;22.80;99.90;;;;;;12646409;28;20566;-41
2021/07/25 18:42:05;;;;;;;4.80;3.03;;;22.80;99.90;;;;;;12641127;28;20112;-40
2021/07/25 18:48:07;;;;;;;5.40;3.15;;;22.80;99.90;;;;;;12641101;28;20191;-42
2021/07/25 18:54:09;;;;;;;4.68;3.17;;;22.80;99.90;;;;;;12643548;28;20048;-41
2021/07/25 19:00:18;;;;;;;6.55;3.30;;;22.70;99.90;;;;;;12640814;28;20056;-40
2021/07/25 19:06:21;;;;;;;4.47;3.20;;;22.50;99.90;;;;;;12622850;28;20056;-40
2021/07/25 19:12:23;;;;;;;5.30;3.33;;;22.40;99.90;;;;;;12630125;28;20052;-42
2021/07/25 19:18:24;;;;;;;4.50;3.30;;;22.20;99.90;;;;;;12645304;28;20098;-42
2021/07/25 19:24:26;;;;;;;7.30;3.30;;;22.10;99.90;;;;;;12643250;28;21205;-42
2021/07/25 19:30:29;;;;;;;7.07;3.58;;;21.90;99.90;;;;;;12638975;28;20387;-44
2021/07/25 19:36:31;;;;;;;5.20;3.15;;;21.90;99.90;;;;;;12640741;28;20047;-43
2021/07/25 19:42:42;;;;;;;4.35;3.28;;;21.60;99.90;;;;;;12635132;28;20056;-43
2021/07/25 19:48:46;;;;;;;10.60;3.90;;;21.20;99.90;;;;;;12634937;28;20076;-43
2021/07/25 19:54:48;;;;;;;10.32;3.58;;;20.80;99.90;;;;;;12636233;28;20048;-42
2021/07/25 20:00:58;;;;;;;5.07;3.47;;;21.00;99.90;;;;;;12628915;28;20078;-40
2021/07/25 20:07:00;;;;;;;4.93;3.45;;;20.90;99.90;;;;;;12636139;28;20058;-40
2021/07/25 20:13:01;;;;;;;6.07;3.70;;;21.00;99.90;;;;;;12617819;28;20051;-42
2021/07/25 20:19:03;;;;;;;7.85;3.72;;;21.10;99.90;;;;;;12641245;28;20778;-42
2021/07/25 20:25:06;;;;;;;6.70;3.60;;;20.70;99.90;;;;;;12633663;28;20074;-43
2021/07/25 20:31:09;;;;;;;7.43;3.60;;;20.50;99.90;;;;;;12629191;28;20048;-43
2021/07/25 20:37:11;;;;;;;6.53;3.85;;;20.70;99.90;;;;;;12637402;28;20422;-43
2021/07/25 20:43:13;;;;;;;6.40;4.10;;;20.70;99.90;;;;;;12627306;28;20093;-43
2021/07/25 20:49:35;;;;;;;7.43;4.35;;;20.50;99.90;;;;;;12631654;28;20044;-42
2021/07/25 20:55:38;;;;;;;7.03;4.00;;;20.50;99.90;;;;;;12636120;28;20064;-44
2021/07/25 21:01:40;;;;;;;5.55;3.70;;;20.50;99.90;;;;;;12630565;28;20059;-43
2021/07/25 21:07:42;;;;;;;7.80;3.85;;;20.40;99.90;;;;;;12631863;28;20048;-44
2021/07/25 21:13:44;;;;;;;5.88;3.95;;;20.40;99.90;;;;;;12632518;28;20503;-42
2021/07/25 21:19:46;;;;;;;4.57;3.45;;;20.20;99.90;;;;;;12635056;28;20047;-40
2021/07/25 21:25:47;;;;;;;8.68;3.80;;;19.80;99.90;;;;;;12640564;28;20496;-40
2021/07/25 21:31:54;;;;;;;5.70;3.80;;;19.50;99.90;;;;;;12640500;28;20052;-41
2021/07/25 21:37:55;;;;;;;7.93;3.97;;;19.20;99.90;;;;;;12642450;28;20591;-41
2021/07/25 21:43:57;;;;;;;4.85;3.80;;;19.10;99.90;;;;;;12641723;28;20060;-40
2021/07/25 21:49:59;;;;;;;5.10;3.63;;;19.20;99.90;;;;;;12638985;28;20109;-40
2021/07/25 21:56:07;;;;;;;4.97;3.65;;;19.00;99.90;;;;;;12642376;28;20039;-40
2021/07/25 22:08:39;;;;;;;6.45;3.88;;;18.70;99.90;;;;;;12610590;28;20054;-42
2021/07/25 22:14:41;;;;;;;5.70;3.33;;;19.00;99.90;;;;;;12637913;28;20539;-42
2021/07/25 22:20:43;;;;;;;5.78;3.58;;;19.60;99.90;;;;;;12631907;28;20119;-42
2021/07/25 22:26:45;;;;;;;7.28;3.58;;;19.80;99.90;;;;;;12635578;28;20052;-43
2021/07/25 22:32:47;;;;;;;6.93;3.67;;;19.40;99.90;;;;;;12634581;28;20052;-44
2021/07/25 22:38:49;;;;;;;6.22;3.53;;;19.40;99.90;;;;;;12640352;28;20096;-44
2021/07/25 22:44:50;;;;;;;5.50;3.92;;;19.70;99.90;;;;;;12639851;27;20043;-42
2021/07/25 22:50:57;;;;;;;6.50;3.60;;;19.90;99.90;;;;;;12637590;28;20048;-43
2021/07/25 22:57:02;;;;;;;6.30;3.50;;;19.90;99.90;;;;;;12636207;28;20104;-43
2021/07/25 23:03:06;;;;;;;10.73;4.47;;;19.90;99.90;;;;;;12636544;28;20084;-42
2021/07/25 23:09:09;;;;;;;6.75;3.83;;;19.80;99.90;;;;;;12635582;28;20055;-40
2021/07/25 23:15:11;;;;;;;8.55;3.45;;;19.70;99.90;;;;;;12640285;28;20123;-40
2021/07/25 23:21:13;;;;;;;4.32;3.10;;;19.80;99.90;;;;;;12639779;28;20066;-40
2021/07/25 23:27:14;;;;;;;8.35;3.85;;;19.90;99.90;;;;;;12637402;28;20540;-40
2021/07/25 23:33:16;;;;;;;4.63;3.53;;;20.00;99.90;;;;;;12632828;28;20048;-40
2021/07/25 23:39:18;;;;;;;6.10;3.50;;;20.00;99.90;;;;;;12635973;28;20044;-40
2021/07/25 23:45:20;;;;;;;4.60;3.35;;;20.00;99.90;;;;;;12640109;28;20093;-41
2021/07/25 23:51:22;;;;;;;5.43;3.50;;;20.20;99.90;;;;;;12641890;28;20103;-41
2021/07/25 23:57:23;;;;;;;4.93;3.30;;;20.40;99.90;;;;;;12634372;28;20044;-44
